Terminal Aerodrome Forecast
Issued by NWS

Home | Current Version | Previous Version | Text Only | Print | Product List | Glossary On
Versions: 1 2 3 4 5 6 7 8 9 10 11 12 13 14 15 16 17 18 19 20 21 22 23 24 25 26 27 28 29 30 31 32 33 34 35 36 37 38 39 40 41 42
000
FTUS45 KBOU 060527
TAFAPA
TAF
KAPA 060527Z 0606/0706 03008KT P6SM VCSH SCT020 BKN050 BKN070
      TEMPO 0607/0608 -SHRA SCT015 BKN040
     FM060800 02012KT P6SM VCSH BKN015 OVC035
      TEMPO 0610/0614 -SHRA
     FM061400 03010KT P6SM VCSH BKN020
      TEMPO 0614/0618 -SHRA
     FM061900 04007KT P6SM VCTS SCT025CB BKN040
      TEMPO 0621/0701 -SHRA BKN025
     FM070100 08007KT P6SM VCSH SCT025 BKN040=

USA.gov is the U.S. government's official web portal to all federal, state and local government web resources and services.